Tiempo atmosférico en la estación meteorológica de Reus Aeropuerto, Tarragona (71 m.)



Fecha
DESCASC
Temp. máxima en grados centígrados (hora)
DESCASC
Temp. mínima en grados centígrados (hora)
DESCASC
Temp. media en grados centígrados
DESCASC
Racha de viento máxima en m/sg (hora)
DESCASC
Velocidad máxima media en intervalos de 10 minutos(hora)
DESCASC
Precipitaciones diarias en mm
DESCASC
Precipitaciones de 00:00 a 06:00 en mm
DESCASC
Precipitaciones de 06:00 a 12:00 en mm
DESCASC
Precipitaciones de 12:00 a 18:00 en mm
DESCASC
Precipitaciones de 18:00 a 24:00 en mm
DESCASC
06-07-2020 35 (14:50) 19.6 (06:20) 27.3 13.33 (17:40) 9.44 (17:30) 0 0 0 0 0
05-07-2020 30.5 (13:00) 16.9 (06:30) 23.7 7.78 (15:40) 5.56 (17:40) 0 0 0 0 0
04-07-2020 29.5 (13:40) 17.1 (02:40) 23.3 10.83 (04:50) 8.33 (04:50) 0 0 0 0 0
03-07-2020 30.9 (16:00) 19.6 (06:30) 25.3 14.44 (04:30) 10 (04:50) 0 0 0 0 0
02-07-2020 30.7 (12:40) 20.2 (00:00) 25.5 8.33 (13:00) 5.28 (16:00) 0 0 0 0 0
01-07-2020 32.1 (13:10) 19.4 (00:00) 25.7 7.78 (16:30) 4.44 (15:50) 0 0 0 0 0
30-06-2020 29.7 (15:40) 21.6 (00:00) 25.7 7.22 (14:20) 4.44 (13:40) 0 0 0 0 0
29-06-2020 30.4 (14:30) 20.5 (00:00) 25.4 7.78 (16:40) 5 (16:20) 0 0 0 0 0
28-06-2020 29.5 (13:40) 21.6 (00:00) 25.6 7.22 (14:00) 4.72 (16:50) 0 0 0 0 0
27-06-2020 29.2 (13:40) 18.9 (00:00) 24.1 7.78 (14:30) 5 (14:00) 0 0 0 0 0
26-06-2020 31.3 (15:20) 16.6 (00:00) 23.9 7.22 (14:30) 4.44 (17:00) 0 0 0 0 0
25-06-2020 29.5 (16:40) 19 (00:00) 24.3 7.22 (16:10) 4.17 (17:10) 0 0 0 0 0
24-06-2020 28.5 (15:30) 17.8 (00:00) 23.1 -- (--) -- (--) 0 0 0 0 0
23-06-2020 27.6 (15:40) 19 (00:00) 23.3 8.89 (13:00) 5.56 (14:30) 0 0 0 0 0
22-06-2020 30.6 (13:20) 16.8 (00:00) 23.7 9.72 (14:50) 7.22 (14:50) -- 0 -- 0 0
21-06-2020 27.7 (13:10) 19.5 (00:00) 23.6 8.33 (15:30) 5 (15:30) 0 0 0 0 0
20-06-2020 26.7 (15:10) 18.4 (00:00) 22.6 7.22 (12:50) 4.72 (16:40) 0 0 0 0 0
19-06-2020 24.8 (14:30) 15.7 (00:00) 20.2 7.22 (15:10) 4.44 (15:10) 0 0 0 0 0
18-06-2020 -- (--) -- (--) -- -- (--) -- (--) -- 4.6 -- -- 0
17-06-2020 25.7 (14:00) 15.5 (00:00) 20.6 10.28 (02:30) 6.67 (04:50) 0 0 0 0 0
16-06-2020 22.5 (19:50) 15.5 (00:00) 19 6.67 (10:00) 4.17 (10:10) 6 0 5 0.9 0.1
15-06-2020 -- (--) -- (--) -- -- (--) -- (--) -- -- -- 0 0
14-06-2020 -- (--) -- (--) -- -- (--) -- (--) -- 0 0 0 --
13-06-2020 28 (16:20) 13.7 (00:00) 20.8 14.44 (15:10) 9.17 (13:00) 0 0 0 0 0
12-06-2020 26.8 (13:50) 15.7 (00:00) 21.2 10.28 (15:40) 6.94 (16:20) 0 0 0 0 0
11-06-2020 24.8 (14:50) 16.9 (00:00) 20.8 9.17 (12:40) 5.83 (13:10) 0 0 0 0 0
10-06-2020 25.1 (14:50) 10.8 (00:00) 18 10.83 (17:00) 8.06 (17:00) 0 0 0 0 0

Gráficas

Temp. máximas Temp. mínimas Temp. medias Precipitaciones Rachas de viento máximas Velocidades máximas media en intervalos de 10 minutos

Datos horarios

Fecha y hora oficial Temperatura (ºC) Velocidad del viento (km/h) Dirección del viento Racha (km/h) Dirección de racha Precipitación (mm) Presión (hPa) Tendencia (hPa) Humedad (%)
2020-07-09 23:00:00 23.8 4 Noroeste 9 Oeste 0 1007.3 -- 69
2020-07-09 22:00:00 24.1 8 Sudoeste 11 Sur 0 1006.9 -- 62
2020-07-09 21:00:00 26.3 7 Este 13 Sudeste 0 1006.1 -- 58
2020-07-09 20:00:00 27.9 10 Sudeste 15 Sudeste 0 1006.5 -- 51
2020-07-09 19:00:00 29.5 10 Sudeste 17 Sudeste 0 1006.3 -- 52
2020-07-09 18:00:00 30.1 5 Sudeste 17 Sudoeste 0 1006.9 -- 49
2020-07-09 17:00:00 29.7 12 Sur 22 Sudoeste 0 1007.7 -- 55
2020-07-09 16:00:00 29.4 17 Sur 30 Sur 0 1008.1 -- 57
2020-07-09 15:00:00 29.9 21 Sur 39 Sur 0 1008.3 -- 54
2020-07-09 14:00:00 29.5 11 Sudeste 21 Este 0 1006.7 -- 54
2020-07-09 13:00:00 29.8 12 Sudeste 26 Sudoeste 0 1007.7 -- 54
2020-07-09 12:00:00 30.7 8 Sudoeste 17 Sudoeste 0 1008.4 -- 49
2020-07-09 11:00:00 29.1 6 Este 13 Nordeste 0 1008.3 -- 55
2020-07-09 10:00:00 27.6 3 Nordeste 17 Nordeste 0 1008.5 -- 62
2020-07-09 09:00:00 25.4 12 Nordeste 18 Nordeste 0 1008.5 -- 70
2020-07-09 08:00:00 22.6 10 Norte 15 Norte 0 1008.2 -- 83
2020-07-09 07:00:00 21.8 4 Noroeste 11 Oeste 0 1007.6 -- 87
2020-07-09 06:00:00 21.7 3 Noroeste 5 Noroeste 0 1007.3 -- 87
2020-07-09 05:00:00 21.7 0 Calma 9 Noroeste 0 1007.4 -- 86
2020-07-09 04:00:00 22.2 9 Noroeste 11 Noroeste 0 1007.4 -- 86
2020-07-09 03:00:00 21.9 5 Nordeste 11 Este 0 1007.3 -- 87
2020-07-09 02:00:00 22.5 6 Nordeste 13 Sudoeste 0 1007.5 -- 84
2020-07-09 01:00:00 22.9 4 Oeste 13 Norte 0 1008.6 -- 83
2020-07-09 00:00:00 23.1 5 Nordeste 9 Nordeste 0 1008.2 -- 83
2020-07-08 23:00:00 23.1 9 Este 13 Este 0 1008.1 -- 83
2020-07-08 22:00:00 23.5 6 Este 13 Este 0 1008.6 -- 81
2020-07-08 21:00:00 24.2 13 Sur 26 Sur 0 1009 -- 80
2020-07-08 20:00:00 25.1 14 Sudoeste 22 Sudoeste 0 1008.5 -- 73
2020-07-08 19:00:00 27.6 14 Sur 22 Sur 0 1007.6 -- 59
2020-07-08 18:00:00 26.6 14 Sudeste 24 Sur 0 1007.6 -- 66
2020-07-08 17:00:00 28.1 15 Sur 24 Sur 0 1007.7 -- 60
2020-07-08 16:00:00 29.3 14 Sur 24 Sur 0 1007.9 -- 56
2020-07-08 15:00:00 29.3 17 Sur 24 Sudeste 0 1008.5 -- 54
2020-07-08 14:00:00 29 17 Sur 28 Sur 0 1009.3 -- 54
2020-07-08 13:00:00 29.1 14 Sudeste 26 Sudeste 0 1008.7 -- 54
2020-07-08 12:00:00 28.7 12 Sur 21 Sudoeste 0 1009.4 -- 52
2020-07-08 11:00:00 28 9 Sur 18 Sur 0 1008.9 -- 54
2020-07-08 10:00:00 27.1 6 Sur 15 Sur 0 1008.5 -- 51
2020-07-08 09:00:00 26 2 Sudeste 8 Nordeste 0 1008.3 -- 55
2020-07-08 08:00:00 22.2 8 Norte 11 Norte 0 1007.9 -- 68
2020-07-08 07:00:00 18.7 7 Norte 15 Norte 0 1007.7 -- 80
2020-07-08 06:00:00 18.9 9 Norte 13 Norte 0 1007.5 -- 80
2020-07-08 05:00:00 20.1 10 Norte 17 Norte 0 1007.4 -- 76
2020-07-08 04:00:00 19.6 9 Norte 11 Norte 0 1007.7 -- 78
2020-07-08 03:00:00 19.6 5 Nordeste 13 Norte 0 1008.1 -- 80
2020-07-08 02:00:00 20.2 11 Norte 13 Norte 0 1008.4 -- 79
2020-07-08 01:00:00 20.8 -- -- -- -- 0 1008.6 -- 75
2020-07-08 00:00:00 21.4 9 Norte 11 Norte 0 1008.3 -- 72
2020-07-07 23:00:00 22 0 Calma 9 Sur 0 1008.1 -- 72
2020-07-07 22:00:00 22.5 7 Sur 13 Sudoeste 0 1007.3 -- 67
2020-07-07 21:00:00 25.2 11 Sur 17 Sur 0 1006.7 -- 55
2020-07-07 20:00:00 26.9 11 Sur 22 Sur 0 1006.4 0 50
2020-07-07 19:00:00 28.2 15 Sur 26 Sudoeste 0 1006.3 0 46
2020-07-07 18:00:00 29.6 15 Sur 30 Sur 0 1006.4 0.2 33
2020-07-07 17:00:00 30.6 16 Sur 26 Sur 0 1006.4 0 30
2020-07-07 16:00:00 30.8 14 Sudeste 33 Sudeste 0 1006.3 -0.5 28
2020-07-07 15:00:00 30.9 16 Sur 32 Sudeste 0 1006.2 -0.7 23
2020-07-07 14:00:00 30.8 10 Sur 24 Sudoeste 0 1006.4 -0.8 26
2020-07-07 13:00:00 29.7 14 Sur 32 Este 0 1006.8 -0.5 30
2020-07-07 12:00:00 28.6 7 Sudeste 17 Sudeste 0 1006.9 -0.2 39
2020-07-07 11:00:00 27.4 5 Norte 13 Noroeste 0 1007.2 0.4 38
2020-07-07 10:00:00 25.4 2 Este 9 Oeste 0 1007.3 0.6 36
2020-07-07 09:00:00 23.3 3 Nordeste 18 Oeste 0 1007.1 0.5 38
2020-07-07 08:00:00 20.3 13 Oeste 21 Oeste 0 1006.8 0.4 43
2020-07-07 07:00:00 17.5 8 Oeste 28 Oeste 0 1006.7 -- 50
2020-07-07 06:00:00 18.9 16 Oeste 35 Oeste 0 1006.6 -- 44
2020-07-07 05:00:00 20.1 28 Oeste 41 Oeste 0 1006.4 -- 41
2020-07-07 04:00:00 21.4 22 Oeste 39 Oeste 0 1006.5 -- 38
2020-07-07 03:00:00 22.4 23 Oeste 32 Noroeste 0 1006.9 -- 38
2020-07-07 02:00:00 22.5 18 Oeste 42 Oeste 0 1006.7 -- 46
2020-07-07 01:00:00 22.9 21 Oeste 32 Oeste 0 1007.3 -- 50
2020-07-07 00:00:00 23.4 7 Noroeste 9 Noroeste 0 1007.1 -- 80
2020-07-06 23:00:00 23.2 9 Este 13 Este 0 1006.7 -- 82
2020-07-06 22:00:00 24.5 10 Este 15 Este 0 1006.1 -- 79
2020-07-06 21:00:00 26.7 9 Sudeste 21 Sur 0 1005.5 -- 70
2020-07-06 20:00:00 27.9 15 Sudoeste 35 Sudoeste 0 1005.2 -- 63
2020-07-06 19:00:00 29.1 26 Sudoeste 46 Sudoeste 0 1005 -- 41
2020-07-06 18:00:00 29.9 31 Sudoeste 48 Sudoeste 0 1005.2 -- 48
2020-07-06 17:00:00 30.7 31 Sur 42 Sudoeste 0 1005.4 -- 42
2020-07-06 16:00:00 32.2 27 Sur 39 Sur 0 1005.5 -- 44
2020-07-06 15:00:00 34.7 24 Sudoeste 37 Oeste 0 1005.7 -- 27
2020-07-06 14:00:00 34 26 Oeste 39 Oeste 0 1006.1 -- 28
2020-07-06 13:00:00 33.2 25 Oeste 37 Oeste 0 1006.5 -- 30
2020-07-06 12:00:00 31.9 28 Oeste 37 Oeste 0 1006.9 -- 32
2020-07-06 11:00:00 30.4 27 Oeste 35 Oeste 0 1006.9 -- 35
2020-07-06 10:00:00 28.9 14 Oeste 18 Oeste 0 1007.2 -- 40
2020-07-06 09:00:00 26.3 5 Este 11 Nordeste 0 1007.5 -- 57
2020-07-06 08:00:00 23.3 7 Nordeste 11 Este 0 1007.1 -- 68
2020-07-06 07:00:00 20 4 Norte 9 Nordeste 0 1007 -- 81
2020-07-06 06:00:00 20 7 Norte 15 Norte 0 1007 -- 82
2020-07-06 05:00:00 20.6 9 Norte 15 Nordeste 0 1007.1 -- 81
2020-07-06 04:00:00 21.1 11 Norte 15 Norte 0 1007.4 -- 82
2020-07-06 03:00:00 21.5 7 Nordeste 9 Nordeste 0 1007.9 -- 85
2020-07-06 02:00:00 22 9 Norte 11 Norte 0 1008.2 -- 84
2020-07-06 01:00:00 22.4 9 Norte 18 Norte 0 1008.5 -- 84
2020-07-06 00:00:00 22.5 0 Calma 4 Este 0 1008.6 -- 84
2020-07-05 23:00:00 23 0 Calma 9 Sudoeste 0 1008.8 -- 83
2020-07-05 22:00:00 23.4 7 Sudoeste 15 Sur 0 1008.4 -- 81
2020-07-05 21:00:00 25.5 11 Sur 21 Sudoeste 0 1008.3 -- 73
2020-07-05 20:00:00 26.9 14 Sudoeste 24 Sudoeste 0 1008.3 -- 69
2020-07-05 19:00:00 27.8 17 Sudoeste 26 Sudoeste 0 1008.5 -- 58
2020-07-05 18:00:00 28.6 19 Sudoeste 28 Sur 0 1009 -- 53
2020-07-05 17:00:00 29 16 Sur 26 Sudoeste 0 1009.6 -- 45
2020-07-05 16:00:00 29 17 Sur 28 Sudoeste 0 1010 -- 51
2020-07-05 15:00:00 29.7 17 Sur 26 Sudoeste 0 1010.6 -- 33
2020-07-05 14:00:00 30 14 Sur 24 Sudoeste 0 1011 -- 33
2020-07-05 13:00:00 30.3 13 Sur 22 Sudoeste 0 1011.3 -- 30
2020-07-05 12:00:00 29.4 13 Sur 22 Sudeste 0 1011.3 -- 38
2020-07-05 11:00:00 29.6 9 Sudoeste 21 Sudoeste 0 1011.4 -- 26
2020-07-05 10:00:00 27.3 5 Nordeste 11 Nordeste 0 1011.7 -- 36
2020-07-05 09:00:00 24.4 5 Nordeste 11 Nordeste 0 1011.6 -- 51
2020-07-05 08:00:00 20.8 6 Nordeste 13 Nordeste 0 1011.3 -- 64
2020-07-05 07:00:00 17.2 6 Nordeste 9 Nordeste 0 1011 -- 83
2020-07-05 06:00:00 17.4 5 Norte 9 Norte 0 1011 -- 84
2020-07-05 05:00:00 18 5 Norte 8 Nordeste 0 1011 -- 83
2020-07-05 04:00:00 19.4 5 Norte 15 Norte 0 1011.2 -- 78
2020-07-05 03:00:00 19.8 13 Norte 17 Norte 0 1011.7 -- 76
2020-07-05 02:00:00 19.6 10 Norte 13 Norte 0 1012.2 -- 79
2020-07-05 01:00:00 20.4 6 Norte 8 Noroeste 0 1012.5 -- 80
2020-07-05 00:00:00 20.6 5 Noroeste -- -- 0 1012.6 -- 78
2020-07-04 23:00:00 20.9 7 Sudoeste 11 Sudoeste 0 1012.7 -- 77
2020-07-04 22:00:00 21.1 10 Sudoeste 13 Sur 0 1011.9 -- 75
2020-07-04 21:00:00 24.2 9 Sur 18 Sudoeste 0 1011.7 -- 61
2020-07-04 20:00:00 25.3 12 Sur 22 Sur 0 1011.4 -- 55
2020-07-04 19:00:00 26.5 15 Sur 26 Sudoeste 0 1011 -- 51
2020-07-04 18:00:00 28.1 14 Sur 24 Sudeste 0 1011.2 -- 38
2020-07-04 17:00:00 28.3 15 Sur 28 Sur 0 1011.4 -- 31
2020-07-04 16:00:00 29.1 15 Sudeste 28 Sudeste 0 1011.6 -- 28
2020-07-04 15:00:00 29.2 16 Sudeste 28 Sudeste 0 1011.7 -- 26
2020-07-04 14:00:00 29 18 Sudeste 28 Sudeste 0 1012.1 -- 29
2020-07-04 13:00:00 28.9 7 Oeste 15 Sudoeste 0 1012.5 -- 25
2020-07-04 12:00:00 26.9 5 Oeste 18 Oeste 0 1012.7 -- 29
2020-07-04 11:00:00 25.7 6 Sur 15 Sudoeste 0 1012.9 -- 32
2020-07-04 10:00:00 23.5 10 Sur 18 Sudeste 0 1012.9 -- 37
2020-07-04 09:00:00 22.4 12 Este 18 Este 0 1012.4 -- 39
2020-07-04 08:00:00 20.1 4 Sudoeste 13 Noroeste 0 1011.8 -- 45
2020-07-04 07:00:00 18 10 Noroeste 24 Noroeste 0 1011.4 -- 49
2020-07-04 06:00:00 18.1 14 Noroeste 35 Oeste 0 1011.2 -- 49
2020-07-04 05:00:00 19.2 27 Oeste 39 Oeste 0 1010.9 -- 47
2020-07-04 04:00:00 19.4 18 Oeste 26 Oeste 0 1011.1 -- 52
2020-07-04 03:00:00 17.5 12 Oeste 21 Oeste 0 1011.2 -- 69
2020-07-04 02:00:00 18.4 9 Noroeste 15 Oeste 0 1011.3 -- 86
2020-07-04 01:00:00 19.9 6 Norte 17 Oeste 0 1011.1 -- 87
2020-07-04 00:00:00 20.5 13 Sudoeste 17 Sudoeste 0 1010.8 -- 88
2020-07-03 23:00:00 21.5 9 Sudoeste 15 Sudoeste 0 1010.5 -- 84
2020-07-03 22:00:00 22.2 10 Sudoeste 26 Sur 0 1009.7 -- 81
2020-07-03 21:00:00 23.4 16 Sudoeste 33 Sudoeste 0 1009.3 -- 74
2020-07-03 20:00:00 25 19 Sudoeste 35 Sur 0 1009 -- 61
2020-07-03 19:00:00 25.7 25 Sur 39 Sur 0 1008.7 -- 56
2020-07-03 18:00:00 26.8 27 Sudoeste 42 Sur 0 1008.8 -- 49
2020-07-03 17:00:00 27.9 28 Sur 39 Sur 0 1008.8 -- 40
2020-07-03 16:00:00 30.6 22 Oeste 37 Oeste 0 1008.5 -- 29
2020-07-03 15:00:00 29.9 25 Oeste 41 Oeste 0 1009 -- 29
2020-07-03 14:00:00 28.3 14 Oeste 33 Oeste 0 1009.8 -- 32
2020-07-03 13:00:00 27 24 Oeste 39 Oeste 0 1010.2 -- 36
2020-07-03 12:00:00 25.7 25 Oeste 42 Oeste 0 1010.2 -- 39
2020-07-03 11:00:00 23.6 23 Oeste 39 Oeste 0 1010 -- 45
2020-07-03 10:00:00 22.6 28 Oeste 41 Oeste 0 1009.5 -- 48
2020-07-03 09:00:00 20.5 26 Oeste 37 Noroeste 0 1009.3 -- 54
2020-07-03 08:00:00 20.3 27 Oeste 46 Oeste 0 1008.5 -- 54
2020-07-03 07:00:00 19.7 20 Oeste 39 Noroeste 0 1008.3 -- 56
2020-07-03 06:00:00 20.2 24 Noroeste 45 Noroeste 0 1008 -- 54
2020-07-03 05:00:00 20.6 34 Oeste 52 Oeste 0 1007.7 -- 53
2020-07-03 04:00:00 21.3 31 Oeste 41 Oeste 0 1007.5 -- 52
2020-07-03 03:00:00 22.6 25 Oeste 33 Oeste 0 1007.6 -- 52
2020-07-03 02:00:00 23.9 21 Oeste 30 Oeste 0 1007.6 -- 61
2020-07-03 01:00:00 24.1 5 Oeste 11 Sudeste 0 1007.6 -- 72
2020-07-03 00:00:00 24.1 6 Sudeste 13 Este 0 1007.4 -- 69
2020-07-02 23:00:00 23.9 9 Este 17 Este 0 1006.6 -- 72
2020-07-02 22:00:00 24.2 10 Este 17 Este 0 1005.8 -- 72
2020-07-02 21:00:00 24.9 10 Este 21 Sudeste 0 1005 -- 71
2020-07-02 20:00:00 26.9 12 Este 24 Sudeste 0 1004.7 -- 60
2020-07-02 19:00:00 27.8 11 Sudeste 26 Sur 0 1004.4 -- 55
2020-07-02 18:00:00 28.1 15 Sudeste 24 Sudeste 0 1004.5 -- 58
2020-07-02 17:00:00 28.2 17 Sur 28 Sudeste 0 1004.5 -- 56
2020-07-02 16:00:00 29.4 19 Sur 28 Sur 0 1004.8 -- 53
2020-07-02 15:00:00 28.8 17 Sudeste 26 Sur 0 1005.2 -- 55
2020-07-02 14:00:00 29.5 16 Sur 30 Sur 0 1005.8 -- 55
2020-07-02 13:00:00 29.3 17 Sur 30 Sur 0 1005.8 -- 53
2020-07-02 12:00:00 30.2 13 Sur 22 Sur 0 1005.7 -- 51
2020-07-02 11:00:00 29.2 10 Sur 18 Sur 0 1005.7 -- 57
2020-07-02 10:00:00 27.3 9 Sudoeste 17 Sudoeste 0 1005.6 -- 62
2020-07-02 09:00:00 27.1 5 Sudoeste 9 Sudoeste 0 1005.2 -- 63
2020-07-02 08:00:00 23.8 7 Norte 15 Norte 0 1005 -- 72
2020-07-02 07:00:00 20.9 11 Norte 13 Norte 0 1005 -- 83
2020-07-02 06:00:00 21 6 Noroeste 13 Norte 0 1004.6 -- 83
2020-07-02 05:00:00 21.6 11 Norte 13 Norte 0 1004 -- 84
2020-07-02 04:00:00 22.4 9 Noroeste 11 Noroeste 0 1004.1 -- 86
2020-07-02 03:00:00 23.2 5 Norte 15 Norte 0 1004.3 -- 86
2020-07-02 02:00:00 23.6 10 Norte 13 Norte 0 1004.5 -- 85
2020-07-02 01:00:00 23.5 8 Nordeste 15 Nordeste 0 1004.7 -- 88
2020-07-02 00:00:00 23.7 10 Este 13 Este 0 1003.9 -- 86
2020-07-01 23:00:00 24.2 0 Calma 5 Sudeste 0 1003.3 -- 81
2020-07-01 22:00:00 24.7 4 Sudoeste 13 Sur 0 1002.3 -- 78
2020-07-01 21:00:00 26.5 8 Sur 15 Sudeste 0 1001.8 -- 67
2020-07-01 20:00:00 28.8 10 Sudeste 17 Sudeste 0 1001.4 -- 58
2020-07-01 19:00:00 30.1 11 Sudoeste 18 Sudoeste 0 1001.5 -- 49
2020-07-01 18:00:00 30.3 11 Sur 24 Sur 0 1001.8 -- 51
2020-07-01 17:00:00 31 13 Sur 28 Sur 0 1001.9 -- 47
2020-07-01 16:00:00 30.9 14 Sudeste 24 Sudeste 0 1001.9 -- 48
2020-07-01 15:00:00 31.8 13 Sudeste 21 Sudeste 0 1001.9 -- 45
2020-07-01 14:00:00 31.6 12 Sudeste 26 Sudeste 0 1002.2 -- 44
2020-07-01 13:00:00 31.8 8 Sur 18 Sur 0 1002.2 -- 37
2020-07-01 12:00:00 31.3 5 Sur 15 Oeste 0 1002.7 -- 42
2020-07-01 11:00:00 30 6 Sur 17 Sudoeste 0 1002.6 -- 44
2020-07-01 10:00:00 27.9 5 Noroeste 11 Oeste 0 1002.8 -- 54
2020-07-01 09:00:00 25.9 7 Norte 13 Nordeste 0 1002.7 -- 65
2020-07-01 08:00:00 22.6 9 Norte 13 Norte 0 1002.6 -- 74
2020-07-01 07:00:00 19.6 8 Norte 15 Norte 0 1002.4 -- 89
2020-07-01 06:00:00 19.6 7 Norte 13 Norte 0 1002.4 -- 88
2020-07-01 05:00:00 20.2 10 Norte 13 Norte 0 1002.5 -- 87
2020-07-01 04:00:00 20.8 10 Norte 13 Norte 0 1002.8 -- 87
2020-07-01 03:00:00 21.4 8 Norte 11 Norte 0 1003.2 -- 87
2020-07-01 02:00:00 22 6 Norte 13 Nordeste 0 1004 -- 89
2020-07-01 01:00:00 22.7 11 Norte 15 Norte 0 1004.7 -- 86
2020-07-01 00:00:00 22.9 9 Nordeste 11 Nordeste 0 1004.4 -- 86
2020-06-30 23:00:00 22.7 7 Nordeste 11 Nordeste 0 1004.2 -- 88
2020-06-30 22:00:00 23.1 8 Este 11 Sudeste 0 1003.8 -- 83
2020-06-30 21:00:00 24.4 7 Este 17 Sur 0 1003.6 -- 79
2020-06-30 20:00:00 26.8 12 Sudeste 17 Sur 0 1003.6 -- 69
2020-06-30 19:00:00 27 9 Sur 18 Sudeste 0 1003.9 -- 67
2020-06-30 18:00:00 27.8 12 Sudeste 22 Sur 0 1004.4 -- 64
2020-06-30 17:00:00 28.8 13 Sudeste 26 Este 0 1004.9 -- 61
2020-06-30 16:00:00 28.5 15 Sudeste 24 Sudeste 0 1005.5 -- 62
2020-06-30 15:00:00 28 15 Sudeste 26 Sudeste 0 1006 -- 63
2020-06-30 14:00:00 28.8 15 Sudeste 24 Sudeste 0 1006.1 -- 61
2020-06-30 13:00:00 27.3 12 Sur 24 Sur 0 1006.4 -- 66
2020-06-30 12:00:00 26.7 13 Sudeste 22 Sur 0 1006.4 -- 68
2020-06-30 11:00:00 26.8 10 Sudeste 17 Este 0 1006.5 -- 66
2020-06-30 10:00:00 25.8 3 Este 13 Este 0 1006.7 -- 73
2020-06-30 09:00:00 23.7 9 Norte 13 Norte 0 1006.5 -- 82
2020-06-30 08:00:00 22.6 10 Norte 13 Norte 0 1006.2 -- 88
2020-06-30 07:00:00 22.3 8 Norte 11 Norte 0 1006.3 -- 88
2020-06-30 06:00:00 21.7 9 Norte -- -- 0 1006.1 -- 88
2020-06-30 05:00:00 -- 9 Norte 11 Norte 0 1006.2 -- --
2020-06-30 04:00:00 -- 8 Norte 9 Norte 0 1006.4 -- --
2020-06-30 03:00:00 22.3 5 Nordeste 8 Nordeste 0 1006.8 -- 84
2020-06-30 02:00:00 22.7 5 Este -- -- 0 1007.1 -- 83
2020-06-30 01:00:00 23.7 3 Sudeste 9 Sur 0 1007.5 -- 80
2020-06-30 00:00:00 23.8 7 Sur 13 Sur 0 1007.4 -- 81
2020-06-29 23:00:00 24.1 9 Sur 13 Sur 0 1007.1 -- 82
2020-06-29 22:00:00 23.7 6 Sur 11 Sur 0 1006.6 -- 80
2020-06-29 21:00:00 24.7 7 Sudeste 13 Sur 0 1006.5 -- 76
2020-06-29 20:00:00 25.5 9 Sudeste 17 Sur 0 1006.5 -- 73
2020-06-29 19:00:00 25.7 13 Sudeste 22 Sur 0 1006.7 -- 71
2020-06-29 18:00:00 26.4 14 Sudeste 28 Sur 0 1007 -- 70
2020-06-29 17:00:00 27.7 17 Sur 28 Sudeste 0 1007.2 -- 65
2020-06-29 16:00:00 28.3 16 Sudeste 26 Sudeste 0 1007.3 -- 62
2020-06-29 15:00:00 29.9 15 Sudeste 26 Sur 0 1007.6 -- 54
2020-06-29 14:00:00 29.8 12 Sudeste 26 Sudeste 0 1007.9 -- 54
2020-06-29 13:00:00 29.6 14 Sudeste 26 Sudeste 0 1008.1 -- 55
2020-06-29 12:00:00 29.4 14 Sudeste 24 Sudeste 0 1008.1 -- 59
2020-06-29 11:00:00 28.8 12 Sur 21 Sur 0 1008 -- 60
2020-06-29 10:00:00 27.5 5 Sur 13 Sur 0 1008.2 -- 63
2020-06-29 09:00:00 25.9 4 Este 9 Este 0 1008.3 -- 75
2020-06-29 08:00:00 23.8 7 Norte 9 Norte 0 1008.1 -- 77
2020-06-29 07:00:00 21 9 Norte 13 Norte 0 1007.7 -- 84
2020-06-29 06:00:00 20.6 7 Norte 11 Norte 0 1007.4 -- 87
2020-06-29 05:00:00 20.9 9 Norte 13 Norte 0 1007.3 -- 86
2020-06-29 04:00:00 21.3 5 Norte 13 Norte 0 1007.5 -- 85
2020-06-29 03:00:00 21.5 9 Norte 11 Norte 0 1007.6 -- 87
2020-06-29 02:00:00 22.4 9 Norte 11 Norte 0 1008 -- 86
2020-06-29 01:00:00 22.7 5 Noroeste 9 Oeste 0 1008.3 -- 85
2020-06-29 00:00:00 22.6 6 Oeste 9 Oeste 0 1008.1 -- 86
2020-06-28 23:00:00 22.6 6 Sudoeste 11 Sudoeste 0 1007.9 -- 86
2020-06-28 22:00:00 23.2 9 Sudoeste 13 Sudoeste 0 1007.5 -- 83
2020-06-28 21:00:00 25.7 8 Sudoeste 17 Sudoeste 0 1007.2 -- 70
2020-06-28 20:00:00 27.4 13 Sur 18 Sur 0 1007.1 -- 64
2020-06-28 19:00:00 28.1 12 Sur 22 Sur 0 1007.3 -- 62
2020-06-28 18:00:00 28.6 12 Sur 26 Sur 0 1007.7 -- 61
2020-06-28 17:00:00 28.7 13 Sur 26 Sur 0 1008 -- 60
2020-06-28 16:00:00 29 12 Sudoeste 24 Sur 0 1008.4 -0.5 59
2020-06-28 15:00:00 29.1 12 Sur 26 Sur 0 1008.6 -- 60
2020-06-28 14:00:00 28.8 15 Sur 26 Sur 0 1008.8 -- 61
2020-06-28 13:00:00 28.7 14 Sudoeste 24 Sudoeste 0 1008.9 -- 60
2020-06-28 12:00:00 27.5 11 Sur 17 Sur 0 1009.1 -- 65
2020-06-28 11:00:00 28.9 8 Sudoeste 15 Oeste 0 1009 -- 58
2020-06-28 10:00:00 26.5 0 Calma 9 Este 0 1009 -- 65
2020-06-28 09:00:00 25.8 5 Este 15 Norte 0 1008.8 -- 68
2020-06-28 08:00:00 23.7 11 Norte 15 Norte 0 1008.3 -- 75
2020-06-28 07:00:00 21.7 9 Norte 15 Norte 0 1008.3 -- 84
2020-06-28 06:00:00 22.1 11 Norte 15 Norte 0 1008.2 -- 85
2020-06-28 05:00:00 22.6 10 Norte 15 Norte 0 1008.2 -- 85
2020-06-28 04:00:00 22.4 9 Norte 13 Norte 0 1008.3 -- 87
2020-06-28 03:00:00 22.4 8 Norte 11 Norte 0 1008.4 -- 87
2020-06-28 02:00:00 22.4 6 Norte 15 Norte 0 1008.3 -- 87
2020-06-28 01:00:00 21.8 9 Nordeste 13 Nordeste 0 1007.7 -- 91
2020-06-28 00:00:00 21.8 7 Nordeste 11 Nordeste 0 1007.6 -- 89
2020-06-27 23:00:00 21.9 6 Nordeste 9 Nordeste 0 1007.4 -- 88
2020-06-27 22:00:00 22.9 9 Este 13 Este 0 1006.7 -- 84
2020-06-27 21:00:00 25.2 8 Este 15 Este 0 1006.2 -- 75
2020-06-27 20:00:00 26.7 8 Este 18 Este 0 1006.1 -- 66
2020-06-27 19:00:00 27.6 10 Sudeste 22 Sur 0 1006.1 -- 65
2020-06-27 18:00:00 27.5 12 Sudeste 24 Sudeste 0 1006.2 -- 65
2020-06-27 17:00:00 28 14 Sudeste 28 Sudeste 0 1006.1 -- 64
2020-06-27 16:00:00 28.3 16 Sudeste 28 Sudeste 0 1006.2 -- 61
2020-06-27 15:00:00 28.4 15 Sudeste 28 Sudeste 0 1006.3 -- 57
2020-06-27 14:00:00 28.5 18 Sudeste 26 Sudeste 0 1006.4 -- 55
2020-06-27 13:00:00 28.3 15 Sudeste 26 Sudeste 0 1006.5 -- 59
2020-06-27 12:00:00 28.1 12 Sudeste 21 Sur 0 1006.4 -- 60
2020-06-27 11:00:00 28.4 12 Sudeste 18 Sudeste 0 1006.2 -- 49
2020-06-27 10:00:00 27.6 3 Nordeste 13 Este 0 1005.9 -- 45
2020-06-27 09:00:00 25.9 8 Nordeste 13 Nordeste 0 1005.9 -- 57
2020-06-27 08:00:00 22.9 4 Nordeste 9 Nordeste 0 1005.6 -- 67
2020-06-27 07:00:00 19.3 6 Norte 13 Norte 0 1005.4 -- 78
2020-06-27 06:00:00 19.5 11 Norte 13 Norte 0 1005.2 -- 76
2020-06-27 05:00:00 19.5 6 Norte 11 Norte 0 1005.1 -- 80
2020-06-27 04:00:00 20.9 8 Norte 11 Norte 0 1005.2 -- 75
2020-06-27 03:00:00 20.9 11 Norte 13 Norte 0 1005.3 -- 75
2020-06-27 02:00:00 21.1 7 Norte 9 Nordeste 0 1005.3 -- 79
2020-06-27 01:00:00 22.1 5 Este 9 Norte 0 1005 -- 82
2020-06-27 00:00:00 23.4 5 Noroeste 8 Noroeste 0 1005.1 -- 79
2020-06-26 23:00:00 23.3 5 Noroeste 11 Nordeste 0 1005.5 -- 79
2020-06-26 22:00:00 22.7 8 Este 13 Este 0 1004.7 -- 83
2020-06-26 21:00:00 23.8 10 Este 15 Este 0 1004.6 -- 78
2020-06-26 20:00:00 25.1 9 Este 17 Sudeste 0 1004.3 -- 69
2020-06-26 19:00:00 28.2 12 Sudeste 21 Sudeste 0 1004.3 -- 52
2020-06-26 18:00:00 28.9 10 Sudeste 22 Sudeste 0 1004.7 -- 47
2020-06-26 17:00:00 29.4 16 Sudeste 26 Este 0 1004.9 -- 45
2020-06-26 16:00:00 30.8 13 Sudeste 26 Sudeste 0 1005.4 -- 33
2020-06-26 15:00:00 31 10 Sur 26 Sur 0 1005.8 -- 27
2020-06-26 14:00:00 30.4 12 Sudeste 24 Sudeste 0 1006.1 -- 39
2020-06-26 13:00:00 30 11 Sudeste 22 Sur 0 1006.3 -- 36
2020-06-26 12:00:00 29.4 10 Sudeste 18 Sur 0 1006.4 -- 36
2020-06-26 11:00:00 29.1 8 Sudeste 15 Sur 0 1006.3 -- 36
2020-06-26 10:00:00 28.3 0 Calma 8 Sudeste 0 1006.4 -- 33
2020-06-26 09:00:00 25.5 0 Calma 11 Nordeste 0 1006.5 -- 44
2020-06-26 08:00:00 21.3 7 Norte 13 Norte 0 1006.5 -- 56
2020-06-26 07:00:00 17 10 Nordeste 11 Nordeste 0 1006.6 -- 72
2020-06-26 06:00:00 17.5 4 Norte 13 Norte 0 1006.6 -- 66
2020-06-26 05:00:00 18.1 13 Norte 18 Norte 0 1006.7 -- 63
2020-06-26 04:00:00 19 11 Norte 17 Norte 0 1007.2 -- 70
2020-06-26 03:00:00 19.8 9 Norte 11 Norte 0 1007.5 -- 64
2020-06-26 02:00:00 20 2 Nordeste 13 Nordeste 0 1007.5 -- 63
2020-06-26 01:00:00 21.4 12 Norte 15 Nordeste 0 1007.5 -- 65
2020-06-26 00:00:00 21.7 12 Norte 15 Norte 0 1007.3 -- 71
2020-06-25 23:00:00 23.1 3 Noroeste 9 Noroeste 0 1007.5 -- 74
2020-06-25 22:00:00 23.1 0 Calma -- -- 0 1006.9 -- 73
2020-06-25 21:00:00 23.8 5 Sur 9 Sudeste 0 1007.1 -- 70
2020-06-25 20:00:00 25.3 8 Sudeste 15 Sudeste 0 1006.7 -- 65
2020-06-25 19:00:00 28.4 9 Sur 21 Sur 0 1006.7 -- 51
2020-06-25 18:00:00 28.9 14 Sudoeste 22 Sudoeste 0 1006.2 -- 44
2020-06-25 17:00:00 29.3 15 Sudoeste 26 Sur 0 1006.4 -- 40
2020-06-25 16:00:00 28.8 13 Sudeste 22 Sur 0 1006.8 -- 50
2020-06-25 15:00:00 28.5 13 Sudeste 24 Sur 0 1007.2 -- 55
2020-06-25 14:00:00 28.5 15 Sudeste 22 Sudeste 0 1007.5 -- 59
2020-06-25 13:00:00 29 13 Sudoeste 22 Sur 0 1007.8 -- 48
2020-06-25 12:00:00 28.6 15 Sudeste 22 Sudeste 0 1007.7 -- 51
2020-06-25 11:00:00 28.2 5 Sudoeste 13 Sudoeste 0 1007.4 -- 47
2020-06-25 10:00:00 27.1 8 Sudoeste 13 Sur 0 1007.5 -- 51
2020-06-25 09:00:00 25.1 0 Calma 5 Este 0 1007.4 -- 58
2020-06-25 08:00:00 22.3 0 Calma 8 Este 0 1007.1 -- 72
2020-06-25 07:00:00 19.3 3 Norte 13 Norte 0 1007.3 -- 79
2020-06-25 06:00:00 19.7 9 Norte 15 Nordeste 0 1007.4 -- 79
2020-06-25 05:00:00 20.5 10 Norte 11 Norte 0 1007.5 -- 80
2020-06-25 04:00:00 20.1 5 Norte 11 Norte 0 1007.6 -- 78
2020-06-25 03:00:00 20.3 8 Noroeste 9 Noroeste 0 1007.9 -- 84
2020-06-25 02:00:00 20.5 6 Noroeste 9 Oeste 0 1008.4 -- 84
2020-06-25 01:00:00 21 6 Oeste 13 Oeste 0 1008.7 -- 88
2020-06-25 00:00:00 21.2 10 Oeste 13 Oeste 0 1008.7 -- 89
2020-06-24 23:00:00 21.8 6 Sudoeste 15 Sudoeste 0 1008.3 -- 86
2020-06-24 22:00:00 22.4 10 Sudoeste 13 Sudoeste 0 1008.7 -- 82
2020-06-24 21:00:00 23.7 5 Sudeste 9 Este 0 1008.2 -- 75
2020-06-24 20:00:00 25.6 8 Sudeste 15 Sur 0 1008 -- 68
2020-06-24 19:00:00 26.5 8 Sur 15 Sur 0 1008.5 -- 60
2020-06-24 18:00:00 26.2 10 Sudoeste 21 Sur 0 1008.7 -- 60
2020-06-24 17:00:00 27 13 Sudeste 28 Sur 0 1008.7 -- 62
2020-06-24 16:00:00 27.9 16 Sur 28 Sur 0 1008.8 -- 60
2020-06-24 15:00:00 28 13 Sudoeste 24 Sur 0 1008.8 -- 54
2020-06-24 14:00:00 27.7 14 Sur 24 Sudeste 0 1008.8 -- 60
2020-06-24 13:00:00 27.7 13 Sur 22 Sur 0 1008.6 -- 60
2020-06-24 12:00:00 27.3 13 Sur 22 Sudeste 0 1008.5 -- 60
2020-06-24 11:00:00 26.9 8 Sur 15 Sur 0 1008.4 -- 59
2020-06-24 10:00:00 25.5 9 Sudoeste 15 Sudoeste 0 1008.9 -- 66
2020-06-24 09:00:00 24.2 3 Oeste 9 Nordeste 0 1008.9 -- 72
2020-06-24 08:00:00 20.9 9 Norte 13 Norte 0 1008.7 -- 80
2020-06-24 07:00:00 18.7 7 Norte 11 Norte 0 1008.3 -- 87
2020-06-24 06:00:00 18.3 7 Norte 13 Norte 0 1008.5 -- 87
2020-06-24 05:00:00 17.9 7 Norte 9 Norte 0 1008.3 -- 88
2020-06-24 04:00:00 18.4 4 Noroeste 9 Noroeste 0 1008.7 -- 86
2020-06-24 03:00:00 -- -- -- -- -- 0 1008.9 -- --
2020-06-24 02:00:00 19.2 3 Noroeste -- -- 0 1009.3 -- 83
2020-06-24 01:00:00 19.6 -- -- -- -- 0 1009.4 -- 86
2020-06-24 00:00:00 20.4 4 Sudoeste 5 Sudoeste 0 1009.1 -- 87
2020-06-23 23:00:00 20.6 4 Sudoeste 8 Sudoeste 0 1009 -- 86
2020-06-23 22:00:00 21.1 4 Sudoeste 13 Sudoeste 0 1008.4 -- 83
2020-06-23 21:00:00 22.2 9 Sudoeste 18 Sur 0 1008.3 -- 78
2020-06-23 20:00:00 25.1 14 Sur 24 Sudoeste 0 1008.2 -- 65
2020-06-23 19:00:00 26.1 13 Sudoeste 26 Sudoeste 0 1008.2 -- 60
2020-06-23 18:00:00 26.8 14 Sudoeste 28 Sudoeste 0 1008.5 -- 58
2020-06-23 17:00:00 27.1 17 Sudoeste 32 Sur 0 1008.8 -- 56
2020-06-23 16:00:00 27.2 18 Sudoeste 30 Sudoeste 0 1009.3 -- 56
2020-06-23 15:00:00 27.3 17 Sudoeste 32 Sur 0 1009.6 -- 55
2020-06-23 14:00:00 26.9 18 Sur 32 Sur 0 1010.1 -- 62
2020-06-23 13:00:00 26.6 19 Sur 32 Sur 0 1010.5 -- 63
2020-06-23 12:00:00 26.2 17 Sur 28 Sur 0 1010.3 -- 64
2020-06-23 11:00:00 25.9 16 Sur 28 Sur 0 1010.3 -- 64
2020-06-23 10:00:00 25.2 10 Sudoeste 21 Sudoeste 0 1010.5 -- 67
2020-06-23 09:00:00 23.8 11 Sudoeste 17 Sudoeste 0 1010.6 -- 76
2020-06-23 08:00:00 20.9 0 Calma 9 Noroeste 0 1010.5 -- 87
2020-06-23 07:00:00 19.1 9 Noroeste 11 Noroeste 0 1010.4 -- 90
2020-06-23 06:00:00 19.3 7 Norte -- -- 0 1010.3 -- 91
2020-06-23 05:00:00 19.8 5 Noroeste 5 Noroeste 0 1010.6 -- 90
2020-06-23 04:00:00 19.9 0 Calma 5 Noroeste 0 1010.8 -- 89
2020-06-23 03:00:00 20.4 0 Calma 4 Norte 0 1011.2 -- 88
2020-06-23 02:00:00 20.6 0 Calma 4 Norte 0 1011.5 -- 88
2020-06-23 01:00:00 20.6 0 Calma 8 Este 0 1011.7 -- 89
2020-06-23 00:00:00 20.9 2 Nordeste 5 Nordeste 0 1011.8 -- 86
2020-06-22 23:00:00 21.2 0 Calma 9 Sudeste 0 1011.5 -- 84
2020-06-22 22:00:00 21.6 6 Sudeste 13 Sur 0 1010.7 -- 81
2020-06-22 21:00:00 24.1 10 Sur 18 Sur 0 1010.4 -- 70
2020-06-22 20:00:00 25.7 11 Sur 21 Sur 0 1010.1 -- 65
2020-06-22 19:00:00 26.4 16 Sur 28 Sudoeste 0 1010.3 -- 54
2020-06-22 18:00:00 26.9 20 Sur 32 Sudoeste 0 1010.7 -- 49
2020-06-22 17:00:00 27.2 22 Sur 33 Sudoeste 0 1011 -- 52
2020-06-22 16:00:00 27.5 22 Sur 32 Sudoeste 0 1011.5 -- 55
2020-06-22 15:00:00 28 22 Sur 35 Sur 0 1011.9 -- 54
2020-06-22 14:00:00 29.8 20 Sudeste 30 Sudeste 0 1011.7 -- 40
2020-06-22 13:00:00 30.1 8 Sudoeste 15 Oeste 0 1011.9 -- 38
2020-06-22 12:00:00 29 8 Noroeste 15 Oeste 0 1012.1 -- 40
2020-06-22 11:00:00 27.8 3 Norte 9 Norte 0 1012.3 -- 42
2020-06-22 10:00:00 25.9 5 Sudeste 11 Sudeste 0 1012.6 -- 48
2020-06-22 09:00:00 23.5 7 Este 11 Este 0 1012.7 -- 58
2020-06-22 08:00:00 21.6 3 Nordeste 18 Oeste -- 1012.5 -- 63
2020-06-22 07:00:00 19 15 Oeste 26 Oeste 0 1012.1 -- 66
2020-06-22 06:00:00 17.1 4 Oeste 11 Nordeste 0 1012.2 -- 87
2020-06-22 05:00:00 17.7 4 Este 17 Sudoeste 0 1012.3 -- 82
2020-06-22 04:00:00 17.9 5 Este 13 Noroeste 0 1012.5 -- 89
2020-06-22 03:00:00 18.8 8 Noroeste 13 Noroeste 0 1012.8 -- 88
2020-06-22 02:00:00 19.3 8 Noroeste 9 Noroeste 0 1013.2 -- 86
2020-06-22 01:00:00 19.8 5 Norte 13 Norte 0 1013.1 -- 86
2020-06-22 00:00:00 20.5 5 Norte 8 Norte 0 1012.8 -- 86
2020-06-21 23:00:00 20.8 0 Calma 8 Sudeste 0 1012.3 -- 85
2020-06-21 22:00:00 22 4 Sur 9 Sudoeste 0 1011.4 -- 79
2020-06-21 21:00:00 24.4 7 Sudoeste 18 Sudoeste 0 1010.9 -- 65
2020-06-21 20:00:00 25.5 12 Sudoeste 21 Sudoeste 0 1010.6 -- 56
2020-06-21 19:00:00 26.1 14 Sur 21 Sudoeste 0 1010.6 -- 56
2020-06-21 18:00:00 26.9 13 Sudoeste 24 Sur 0 1011 -- 58
2020-06-21 17:00:00 26.9 14 Sur 28 Sur 0 1011.4 -- 63
2020-06-21 16:00:00 26.6 15 Sur 30 Sudoeste 0 1011.7 -- 65
2020-06-21 15:00:00 27.1 14 Sur 24 Sudoeste 0 1011.8 -- 61
2020-06-21 14:00:00 26.8 16 Sur 26 Sur 0 1012.3 -- 65
2020-06-21 13:00:00 27.2 12 Sur 21 Sur 0 1012.4 -- 65
2020-06-21 12:00:00 27.1 12 Sudoeste 22 Sudoeste 0 1012.5 -- 65
2020-06-21 11:00:00 26.7 7 Sudeste 13 Sudeste 0 1012.6 -- 63
2020-06-21 10:00:00 25 4 Oeste 11 Oeste 0 1012.7 -- 68
2020-06-21 09:00:00 21.5 5 Este 9 Nordeste 0 1012.5 -- 82
2020-06-21 08:00:00 20.6 5 Este 9 Este 0 1012.3 -- 89
2020-06-21 07:00:00 19.9 5 Este 9 Este 0 1011.8 -- 91
2020-06-21 06:00:00 20.4 4 Norte 8 Norte 0 1011.5 -- 91
2020-06-21 05:00:00 20.1 5 Norte -- -- 0 1011.5 -- 92
2020-06-21 04:00:00 -- 8 Norte -- -- 0 1011.6 -- --
2020-06-21 03:00:00 20 7 Nordeste 9 Nordeste 0 1011.7 -- 93
2020-06-21 02:00:00 20.1 5 Nordeste 8 Nordeste 0 1012.1 -- 91
2020-06-21 01:00:00 21 0 Calma 8 Nordeste 0 1012.2 -- 91
2020-06-21 00:00:00 20.8 3 Sudeste 8 Sudoeste 0 1012.3 -- 91
2020-06-20 23:00:00 20.6 5 Sudoeste 9 Sudoeste 0 1012 -- 90
2020-06-20 22:00:00 21.2 5 Sudoeste 11 Sudoeste 0 1011.5 -- 88
2020-06-20 21:00:00 21.8 7 Sudoeste 15 Sudoeste 0 1011.2 -- 82
2020-06-20 20:00:00 23 11 Sudoeste 22 Sur 0 1010.9 -- 76
2020-06-20 19:00:00 24.5 16 Sudoeste 24 Sudoeste 0 1010.5 -- 67
2020-06-20 18:00:00 25.7 15 Sur 26 Sur 0 1010.8 -- 64
2020-06-20 17:00:00 26 16 Sur 26 Sur 0 1011.3 -- 62
2020-06-20 16:00:00 26.1 16 Sur 26 Sur 0 1011.9 -- 61
2020-06-20 15:00:00 26.4 15 Sur 24 Sur 0 1012.3 -- 63
2020-06-20 14:00:00 25.4 15 Sudoeste 24 Sudoeste 0 1012.4 -- 66
2020-06-20 13:00:00 24.9 14 Sur 26 Sur 0 1012.5 -- 67
2020-06-20 12:00:00 24.9 10 Sur 17 Sudeste 0 1012.7 -- 66
2020-06-20 11:00:00 23.6 7 Sudeste 17 Sur 0 1012.6 -- 71
2020-06-20 10:00:00 22.2 4 Sur 11 Sudeste 0 1012.7 -- 75
2020-06-20 09:00:00 20.5 0 Calma 5 Nordeste 0 1012.3 -- 79
2020-06-20 08:00:00 20.1 0 Calma 5 Nordeste 0 1012 -- 79
2020-06-20 07:00:00 19.3 5 Norte 8 Norte 0 1011.6 -- 85
2020-06-20 06:00:00 19.2 4 Norte 9 Nordeste 0 1011.6 -- 86
2020-06-20 05:00:00 19.1 8 Nordeste 11 Nordeste 0 1011.5 -- 85
2020-06-20 04:00:00 18.4 8 Norte 11 Norte 0 1011.5 -- 87
2020-06-20 03:00:00 19 8 Nordeste 9 Nordeste 0 1011.7 -- 86
2020-06-20 02:00:00 19.8 0 Calma -- -- 0 1012 -- 85
2020-06-20 01:00:00 19.9 0 Calma 4 Este 0 1012.2 -- 84
2020-06-20 00:00:00 19.8 0 Calma 5 Sudoeste 0 1011.9 -- 83
2020-06-19 23:00:00 19.6 0 Calma 5 Sudoeste 0 1011.6 -- 81
2020-06-19 22:00:00 19.1 5 Sudoeste 13 Sudoeste 0 1010.9 -- 82
2020-06-19 21:00:00 20.4 9 Sudoeste 17 Sur 0 1010.4 -- 72
2020-06-19 20:00:00 22.7 10 Sudoeste 18 Sudoeste 0 1010.2 -- 61
2020-06-19 19:00:00 23.7 10 Sur 21 Sur 0 1010 -- 58
2020-06-19 18:00:00 23.4 13 Sur 22 Sur 0 1010.2 -- 60
2020-06-19 17:00:00 21.7 16 Sur 26 Sudeste 0 1010.5 -- 65
2020-06-19 16:00:00 23 14 Sudeste 26 Sudeste 0 1010.3 -- 60
2020-06-19 15:00:00 23 15 Sudeste 24 Sudeste 0 1010.4 -- 61
2020-06-19 14:00:00 24.2 8 Sudeste 21 Sudeste 0 1010.4 -- 54
2020-06-19 13:00:00 23.9 5 Sudeste 21 Sudeste 0 1010.8 -- 53
2020-06-19 12:00:00 22.1 10 Este 17 Este 0 1010.6 -- 58
2020-06-19 11:00:00 20.6 8 Nordeste 13 Nordeste 0 1010.3 -- 63
2020-06-19 10:00:00 20.1 10 Nordeste 15 Nordeste 0 1010.1 -- 64
2020-06-19 09:00:00 18.3 10 Norte 15 Norte 0 1009.8 -- 75
2020-06-19 08:00:00 17.4 11 Norte 15 Norte 0 1009.6 -- 83
2020-06-19 07:00:00 16.9 8 Norte 11 Norte 0 1009.2 -- 84
2020-06-19 06:00:00 16.1 3 Norte 11 Norte 0 1009.4 -- 89
2020-06-19 05:00:00 16.2 8 Norte 11 Norte 0 1009.2 -- 88
2020-06-19 04:00:00 16.3 6 Nordeste 9 Este 0 1009 -- 88
2020-06-19 03:00:00 16.6 5 Noroeste 13 Noroeste 0 1008.8 -- 89
2020-06-19 02:00:00 17.4 5 Norte 11 Nordeste 0 1008.8 -- 86
2020-06-19 01:00:00 17.5 9 Este 17 Este 0 1008.7 -- 86
2020-06-19 00:00:00 17.5 9 Nordeste 13 Nordeste 0 1008.5 -- 88
2020-06-18 23:00:00 17.4 6 Nordeste 11 Este 0 1008.4 -- 89
2020-06-18 22:00:00 18 7 Este 11 Este 0 1007.6 -- 85
2020-06-18 21:00:00 19.2 9 Sudeste 17 Sur 0 1006.7 -- 77
2020-06-18 20:00:00 21.5 10 Sudeste 21 Sur 0 1006.3 -- 68
2020-06-18 19:00:00 22.6 8 Sur 17 Sudeste 0 1005.8 -- 62
2020-06-18 18:00:00 22.9 10 Sudeste 21 Sudeste 0 1006.1 -- 61
2020-06-18 17:00:00 22.9 15 Sudeste 35 Sudeste 0 1006.1 -- 62
2020-06-18 16:00:00 23.6 14 Sur 24 Sudeste 0 1006.1 -- 59
2020-06-18 15:00:00 23.6 14 Sur -- -- -- 1006.3 -- 55
2020-06-18 14:00:00 -- -- -- -- -- -- -- -- --
2020-06-18 13:00:00 -- -- -- -- -- -- -- -- --
2020-06-18 12:00:00 -- -- -- -- -- -- -- -- --
2020-06-18 11:00:00 -- -- -- -- -- -- -- -- --
2020-06-18 10:00:00 -- -- -- -- -- -- -- -- --
2020-06-18 09:00:00 -- -- -- -- -- -- -- -- --
2020-06-18 08:00:00 15.9 14 Norte 22 Norte 9 1006.1 -- 94
2020-06-18 07:00:00 16.2 8 Norte 13 Norte 1.1 1005.9 -- 93
2020-06-18 06:00:00 16.3 8 Norte 15 Noroeste 4.6 1005.7 -- 91
2020-06-18 05:00:00 17.1 10 Norte 13 Nordeste 0 1005.6 -- 83
2020-06-18 04:00:00 17 9 Norte 13 Norte 0 1006 -- 82
2020-06-18 03:00:00 17 8 Nordeste 21 Norte 0 1006.1 -- 80
2020-06-18 02:00:00 16.9 13 Norte 21 Norte 0 1006.6 -- 79
2020-06-18 01:00:00 17.4 8 Norte 11 Norte 0 1006.8 -- 80
2020-06-18 00:00:00 17.4 4 Norte 11 Noroeste 0 1007.3 -- 79
2020-06-17 23:00:00 18 6 Oeste -- -- 0 1007.1 -- 72
2020-06-17 22:00:00 18.3 8 Sudoeste 13 Sudoeste 0 1006.4 -- 71
2020-06-17 21:00:00 21.1 10 Sudoeste 17 Sudoeste 0 1005.9 -- 58
2020-06-17 20:00:00 22.6 13 Sudoeste 24 Sur 0 1005.7 -- 52
2020-06-17 19:00:00 22.7 15 Sudoeste 24 Sur 0 1005.6 -- 50
2020-06-17 18:00:00 22.4 13 Sudoeste 24 Sudoeste 0 1005.7 -- 51
2020-06-17 17:00:00 22.8 15 Sur 24 Sudoeste 0 1006 -- 52
2020-06-17 16:00:00 23.4 14 Sudeste 28 Sudeste 0 1005.9 -- 46
2020-06-17 15:00:00 25.3 21 Sudeste 32 Sudeste 0 1006.1 -- 45
2020-06-17 14:00:00 25.5 16 Sudoeste 28 Sur 0 1006.2 -- 40
2020-06-17 13:00:00 24.1 15 Oeste 22 Sudoeste 0 1006.9 -- 42
2020-06-17 12:00:00 23.8 14 Oeste 22 Oeste 0 1007.1 -- 46
2020-06-17 11:00:00 22.8 8 Oeste 18 Sur 0 1007.1 -- 50
2020-06-17 10:00:00 20.9 10 Sur 17 Sudeste 0 1007.2 -- 56
2020-06-17 09:00:00 18.3 9 Sudeste 18 Este 0 1006.9 -- 66
2020-06-17 08:00:00 17.8 8 Sudeste 13 Sudeste 0 1006.4 -- 70
2020-06-17 07:00:00 16 2 Sudeste 15 Nordeste 0 1006.2 -- 80
2020-06-17 06:00:00 17.5 9 Norte 28 Noroeste 0 1005.7 -- 65
2020-06-17 05:00:00 17.1 15 Noroeste 33 Noroeste 0 1005.9 -- 69
2020-06-17 04:00:00 16 8 Sudoeste 24 Oeste 0 1006 -- 77
2020-06-17 03:00:00 17.1 17 Oeste 37 Oeste 0 1006.4 -- 72
2020-06-17 02:00:00 15.9 10 Norte 17 Nordeste 0 1007.1 -- 83
2020-06-17 01:00:00 17.1 7 Sur 24 Oeste 0 1007.2 -- 76
2020-06-17 00:00:00 15.5 10 Oeste 18 Oeste 0 1007.4 -- 90
2020-06-16 23:00:00 16.8 14 Oeste 18 Oeste 0 1007.4 -- 90
2020-06-16 22:00:00 17.5 9 Sur 15 Sudoeste 0.1 1007.1 -- 85
2020-06-16 21:00:00 19.2 10 Sudoeste 17 Sudoeste 0 1007 -- 70
2020-06-16 20:00:00 22.1 6 Sur 11 Sur 0 1006.1 -- 59
2020-06-16 19:00:00 22.1 8 Sur 15 Sudoeste 0 1006.7 -- 60
2020-06-16 18:00:00 21.3 6 Sudeste 13 Sur 0 1006.8 -- 70
2020-06-16 17:00:00 18.9 2 Sudeste 9 Noroeste 0 1007.6 -- 79
2020-06-16 16:00:00 18.7 5 Este 15 Este 0 1007.9 -- 81
2020-06-16 15:00:00 17.7 5 Este 13 Noroeste 0.2 1008.8 -- 84
2020-06-16 14:00:00 17.5 6 Norte 15 Noroeste 0.7 1009.2 -- 82
2020-06-16 13:00:00 18.3 9 Noroeste 13 Noroeste 0 1009.3 -- 84
2020-06-16 12:00:00 17.6 8 Norte 15 Norte 0 1009.6 -- 88
2020-06-16 11:00:00 17 0 Calma 22 Norte 4.7 1010.3 -- 88
2020-06-16 10:00:00 19.1 10 Noroeste 24 Norte 0.3 1010.6 -- 73
2020-06-16 09:00:00 20 10 Norte 18 Norte 0 1009.3 -- 73
2020-06-16 08:00:00 19.5 8 Norte 15 Nordeste 0 1009.2 -- 81
2020-06-16 07:00:00 19.2 0 Calma 9 Norte 0 1009 -- 87
2020-06-16 06:00:00 19.4 7 Nordeste 15 Nordeste 0 1008.5 -- 85
2020-06-16 05:00:00 19.7 3 Noroeste 9 Este 0 1009 -- 89
2020-06-16 04:00:00 19.4 8 Este 13 Este 0 1009 -- 89
2020-06-16 03:00:00 20.1 7 Nordeste 13 Nordeste 0 1009.6 -- 87
2020-06-16 02:00:00 19.6 9 Nordeste 13 Nordeste 0 1009.8 -- 90
2020-06-16 01:00:00 19.9 8 Este 13 Este 0 1010.1 -- 89
2020-06-16 00:00:00 19.1 3 Sudeste 9 Sudoeste 0 1009.8 -- 89
2020-06-15 23:00:00 19.2 6 Sudoeste 11 Sur 0 1009.8 -- 87
2020-06-15 22:00:00 19.6 9 Sur 13 Sudoeste 0 1009.4 -- 85
2020-06-15 21:00:00 21.7 9 Sudoeste 18 Sur 0 1009.2 -- 74
2020-06-15 20:00:00 23.5 15 Sur 22 Sur 0 1009.1 -- 64
2020-06-15 19:00:00 25 8 Sur 21 Sudoeste 0 1009.2 -- 57
2020-06-15 18:00:00 25.2 13 Sur 28 Sur 0 1009.4 -- 58
2020-06-15 17:00:00 25.1 16 Sur 26 Sur 0 1009.6 -- 62
2020-06-15 16:00:00 25.1 12 Sudeste 28 Sur 0 1009.9 -- 59
2020-06-15 15:00:00 25.6 14 Sur 28 Sudeste 0 1010.4 -- 57
2020-06-15 14:00:00 25.3 17 Sudeste 26 Sur 0 1010.8 -- 60
2020-06-15 13:00:00 25.5 17 Sudeste 28 Sudeste 0 1011 -- 61
2020-06-15 12:00:00 25 14 Sudeste 22 Sudeste 0 1011 -- 60
2020-06-15 11:00:00 24.5 12 Sudeste 17 Sudeste 0 1011.1 -- 61
2020-06-15 10:00:00 24.1 5 Sudeste 15 Sur 0 1011.2 -- 57
2020-06-15 09:00:00 -- -- -- -- -- -- -- -- --
2020-06-15 08:00:00 -- -- -- -- -- -- -- -- --
2020-06-15 07:00:00 -- -- -- -- -- -- -- -- --
2020-06-15 06:00:00 -- -- -- -- -- -- -- -- --
2020-06-15 05:00:00 -- -- -- -- -- -- -- -- --
2020-06-15 04:00:00 -- -- -- -- -- -- -- -- --
2020-06-15 03:00:00 -- -- -- -- -- -- -- -- --
2020-06-15 02:00:00 -- -- -- -- -- -- -- -- --
2020-06-15 01:00:00 -- -- -- -- -- -- -- -- --
2020-06-15 00:00:00 -- -- -- -- -- -- -- -- --
2020-06-14 23:00:00 18.9 0 Calma 9 Sudoeste 0 1009.4 -- 88
2020-06-14 22:00:00 19 8 Sudoeste 11 Sur 0 1009 -- 86
2020-06-14 21:00:00 21.2 9 Sur 13 Sur 0 1008.8 -- 75
2020-06-14 20:00:00 23.4 9 Sur 17 Sur 0 1008.2 -- 65
2020-06-14 19:00:00 24.2 12 Sur 22 Sur 0 1008 -- 55
2020-06-14 18:00:00 25.5 14 Sur 24 Sudoeste 0 1008.2 -- 51
2020-06-14 17:00:00 25.7 12 Sur 24 Sur 0 1008.3 -- 52
2020-06-14 16:00:00 25 14 Sur 22 Sudoeste 0 1008.7 -- 54
2020-06-14 15:00:00 23.8 14 Sur 35 Sudoeste 0 1009.1 -- 59
2020-06-14 14:00:00 25.5 15 Sur 28 Sudeste 0 1009.3 -- 56
2020-06-14 13:00:00 25.3 11 Sudeste 24 Sudeste 0 1009.4 -- 52
2020-06-14 12:00:00 24.3 13 Sur 22 Sudeste 0 1009.7 -- 55
2020-06-14 11:00:00 23.7 7 Sur 15 Sudeste 0 1009.5 -- 54
2020-06-14 10:00:00 23.1 4 Sudeste 13 Sudeste 0 1009.5 -- 52
2020-06-14 09:00:00 21.7 4 Norte 13 Nordeste 0 1009.3 -- 55
2020-06-14 08:00:00 17.6 9 Nordeste 13 Nordeste 0 1008.9 -- 66
2020-06-14 07:00:00 13.9 8 Nordeste 11 Nordeste 0 1008.3 -- 82
2020-06-14 06:00:00 14.9 8 Norte 17 Norte 0 1008.2 -- 75
2020-06-14 05:00:00 15.4 10 Norte 18 Norte 0 1008.1 -- 69
2020-06-14 04:00:00 15 14 Norte 24 Nordeste 0 1007.8 -- 69
2020-06-14 03:00:00 15.6 15 Nordeste 22 Nordeste 0 1007.9 -- 63
2020-06-14 02:00:00 16.5 11 Norte 17 Norte 0 1008.2 -- 62
2020-06-14 01:00:00 16.3 12 Norte 17 Norte 0 1008.4 -- 66
2020-06-14 00:00:00 17.1 10 Norte 13 Norte 0 1008.3 -- 70
2020-06-13 23:00:00 17.8 7 Oeste 11 Sudoeste 0 1007.7 -- 74
2020-06-13 22:00:00 18.9 5 Sur 22 Sudoeste 0 1006.6 -- 59
2020-06-13 21:00:00 21.6 15 Sur 30 Sudoeste 0 1005.8 -- 51
2020-06-13 20:00:00 22.9 20 Sudoeste 39 Sur 0 1005.1 -- 53
2020-06-13 19:00:00 23.7 23 Sur 35 Sur 0 1004.5 -- 51
2020-06-13 18:00:00 24.8 19 Sudoeste 45 Oeste 0 1004.1 -- 46
2020-06-13 17:00:00 27.3 29 Oeste 46 Oeste 0 1003.8 -- 24
2020-06-13 16:00:00 26.6 27 Oeste 52 Noroeste 0 1003.5 -- 28
2020-06-13 15:00:00 26.6 19 Oeste 46 Oeste 0 1003.7 -- 28
2020-06-13 14:00:00 26.1 26 Oeste 48 Oeste 0 1003.6 -- 30
2020-06-13 13:00:00 25 33 Oeste 48 Oeste 0 1003.2 -- 31
2020-06-13 12:00:00 24.4 30 Oeste 46 Oeste 0 1003.3 -- 35
2020-06-13 11:00:00 23.6 22 Noroeste 33 Norte 0 1002.4 -- 34
2020-06-13 10:00:00 22.5 22 Noroeste 35 Noroeste 0 1001.8 -- 37
2020-06-13 09:00:00 21.5 22 Noroeste 39 Noroeste 0 1001.1 -- 39
2020-06-13 08:00:00 19.4 22 Noroeste 35 Oeste 0 1000.3 -- 45
2020-06-13 07:00:00 14.8 5 Norte 13 Norte 0 999.8 -- 77
2020-06-13 06:00:00 13.9 3 Oeste 11 Oeste 0 999.3 -- 80
2020-06-13 05:00:00 14.2 3 Sur 18 Oeste 0 998.9 -- 80
2020-06-13 04:00:00 16.5 6 Norte 22 Noroeste 0 998.8 -- 66
2020-06-13 03:00:00 16.4 14 Noroeste 24 Oeste 0 999.3 -- 76
2020-06-13 02:00:00 17.5 12 Norte 15 Norte 0 998.8 -- 74
2020-06-13 01:00:00 18 9 Nordeste 13 Nordeste 0 998.9 -- 77
2020-06-13 00:00:00 19.2 9 Norte 11 Norte 0 999.3 -- 74
2020-06-12 23:00:00 19.2 5 Sudoeste -- -- 0 999.3 -- 74
2020-06-12 22:00:00 20 6 Sudoeste 18 Sur 0 998.5 -- 70
2020-06-12 21:00:00 21.4 14 Sur 24 Sur 0 997.7 -- 56
2020-06-12 20:00:00 22.7 10 Sudoeste 21 Sudoeste 0 997 -- 39
2020-06-12 19:00:00 24.3 16 Sur 28 Sudoeste 0 996.5 -- 37
2020-06-12 18:00:00 23.5 19 Sudoeste 32 Sudoeste 0 996.2 -- 42
2020-06-12 17:00:00 24.2 24 Sur 35 Sur 0 995.9 -- 41
2020-06-12 16:00:00 24.7 22 Sur 37 Sur 0 995.8 -- 42
2020-06-12 15:00:00 26.1 22 Sur 33 Sur 0 995.6 -- 35
2020-06-12 14:00:00 26.4 11 Sudoeste 30 Sudoeste 0 995.7 -- 32
2020-06-12 13:00:00 26 14 Oeste 30 Oeste 0 995.4 -- 32
2020-06-12 12:00:00 25 19 Oeste 33 Oeste 0 995.3 -- 33
2020-06-12 11:00:00 22.8 16 Oeste 28 Oeste 0 995.1 -- 37
2020-06-12 10:00:00 22.6 11 Oeste 18 Oeste 0 994.8 -- 41
2020-06-12 09:00:00 20.2 12 Sudoeste 28 Oeste 0 994.3 -- 55
2020-06-12 08:00:00 19.5 10 Oeste 17 Oeste 0 993.9 -- 63
2020-06-12 07:00:00 15.9 4 Oeste 13 Noroeste 0 993.1 -- 87
2020-06-12 06:00:00 16.9 5 Nordeste 11 Norte 0 992.4 -- 88
2020-06-12 05:00:00 18.5 4 Nordeste 15 Norte 0 992.5 -- 89
2020-06-12 04:00:00 19.1 2 Norte 5 Noroeste 0 992.6 -- 90
2020-06-12 03:00:00 19.1 4 Noroeste 9 Este 0 992.8 -- 91
2020-06-12 02:00:00 19.5 4 Este 15 Nordeste 0 992.9 -- 91
2020-06-12 01:00:00 19.7 9 Nordeste 18 Este 0 993.3 -- 88
2020-06-12 00:00:00 19.4 11 Nordeste 26 Nordeste 0 993.7 -- 88
2020-06-11 23:00:00 19 9 Nordeste 15 Este 0 994.2 -- 89
2020-06-11 22:00:00 18.1 10 Este 13 Este 0 994.1 -- 88
2020-06-11 21:00:00 19.9 9 Nordeste 11 Nordeste 0 994.5 -- 80
2020-06-11 20:00:00 20.7 5 Este 18 Sur 0 994.8 -- 75
2020-06-11 19:00:00 20.9 14 Sur 18 Sur 0 995 -- 77
2020-06-11 18:00:00 22 13 Sur 21 Sudeste 0 995.3 -- 74
2020-06-11 17:00:00 22.1 13 Sudeste 26 Sudeste 0 995.8 -- 78
2020-06-11 16:00:00 21.7 16 Sudeste 28 Sudeste 0 996.5 -- 78
2020-06-11 15:00:00 24.4 21 Este 33 Este 0 996.9 -- 66
2020-06-11 14:00:00 22.8 17 Sudeste 32 Sudeste 0 997.5 -- 69
2020-06-11 13:00:00 22.1 19 Sudeste 33 Este 0 998 -- 72
2020-06-11 12:00:00 21.6 18 Sudeste 28 Sudeste 0 998.5 -- 72
2020-06-11 11:00:00 21.6 15 Sudeste 26 Este 0 999.1 -- 71
2020-06-11 10:00:00 19.7 9 Este 15 Este 0 1000.1 -- 78
2020-06-11 09:00:00 18.3 4 Nordeste 11 Nordeste 0 1000.7 -- 82
2020-06-11 08:00:00 17.4 8 Nordeste 11 Nordeste 0 1000.9 -- 83
2020-06-11 07:00:00 17.1 10 Norte 18 Norte 0 1001.1 -- 83
2020-06-11 06:00:00 17.1 15 Norte 21 Norte 0 1001.3 -- 82
2020-06-11 05:00:00 17.2 12 Norte 18 Norte 0 1001.8 -- 83
2020-06-11 04:00:00 17.3 14 Norte 18 Norte 0 1002.3 -- 83
2020-06-11 03:00:00 17.7 12 Norte 21 Norte 0 1003.1 -- 78
2020-06-11 02:00:00 17.5 13 Norte 18 Norte 0 1003.3 -- 79
2020-06-11 01:00:00 17.5 8 Nordeste 22 Nordeste 0 1003.9 -- 79
2020-06-11 00:00:00 18.1 15 Norte 28 Noroeste 0 1004.6 -- 75
2020-06-10 23:00:00 18.2 0 Calma 13 Sudoeste 0 1004.7 -- 77
2020-06-10 22:00:00 18.4 10 Sudoeste 30 Sudoeste 0 1004.2 -- 75
2020-06-10 21:00:00 18.8 18 Sudoeste 30 Sudoeste 0 1004 -- 67
2020-06-10 20:00:00 19.7 14 Sudoeste 30 Sudoeste 0 1003.8 -- 63
2020-06-10 19:00:00 20.3 18 Sudoeste 35 Sur 0 1003.8 -- 59
2020-06-10 18:00:00 22.3 24 Sur 37 Sur 0 1004 -- 51
2020-06-10 17:00:00 22.2 29 Sur 39 Sur 0 1004.3 -- 48
2020-06-10 16:00:00 23.7 25 Sur 37 Sur 0 1004.7 -- 48
2020-06-10 15:00:00 24.8 21 Sur 35 Sur 0 1005.1 -- 41
2020-06-10 14:00:00 24.8 18 Sudoeste 28 Sudoeste 0 1005.3 -- 39
2020-06-10 13:00:00 24 15 Sudoeste 26 Oeste 0 1005.9 -- 41
2020-06-10 12:00:00 23 9 Sudoeste 22 Oeste 0 1006.2 -- 42
2020-06-10 11:00:00 21.5 15 Oeste 26 Oeste 0 1006.3 -- 46
2020-06-10 10:00:00 20.6 4 Oeste 18 Oeste 0 1007.1 -- 49
2020-06-10 09:00:00 17.7 15 Noroeste 28 Noroeste 0 1007.1 -- 56
2020-06-10 08:00:00 16.4 5 Noroeste 17 Noroeste 0 1007.2 -- 64
2020-06-10 07:00:00 11.8 5 Norte 11 Norte 0 1007.1 -- 80
2020-06-10 06:00:00 11.8 10 Noroeste 13 Noroeste 0 1006.8 -- 77
2020-06-10 05:00:00 13.8 10 Noroeste 28 Oeste 0 1007 -- 67
2020-06-10 04:00:00 13.1 13 Oeste 28 Oeste 0 1007.2 -- 71
2020-06-10 03:00:00 13.1 17 Oeste 24 Oeste 0 1007.4 -- 74
2020-06-10 02:00:00 14.4 8 Noroeste 15 Noroeste 0 1007.8 -- 82
2020-06-10 01:00:00 15.1 11 Noroeste 17 Norte 0 1008.1 -- 79
2020-06-10 00:00:00 15.6 11 Norte 21 Norte 0 1008 -- 76